sensor_id;sensor_type;location;lat;lon;timestamp;pressure;altitude;pressure_sealevel;temperature;humidity
67345;BME280;54230;52.402;6.276;2022-12-20T00:00:00;101380.0;;;9.1;93.2
67345;BME280;54230;52.402;6.276;2022-12-20T00:05:00;101380.0;;;9.1;93.0
67345;BME280;54230;52.402;6.276;2022-12-20T00:10:00;101380.0;;;9.1;92.8
67345;BME280;54230;52.402;6.276;2022-12-20T00:15:00;101380.0;;;9.1;92.9
67345;BME280;54230;52.402;6.276;2022-12-20T00:20:00;101380.0;;;9.2;92.9
67345;BME280;54230;52.402;6.276;2022-12-20T00:25:00;101370.0;;;9.1;93.0
67345;BME280;54230;52.402;6.276;2022-12-20T00:30:00;101360.0;;;9.2;92.8
67345;BME280;54230;52.402;6.276;2022-12-20T00:35:00;101340.0;;;9.2;92.5
67345;BME280;54230;52.402;6.276;2022-12-20T00:40:00;101340.0;;;9.2;92.8
67345;BME280;54230;52.402;6.276;2022-12-20T00:45:00;101350.0;;;9.2;92.7
67345;BME280;54230;52.402;6.276;2022-12-20T00:50:00;101330.0;;;9.2;92.3
67345;BME280;54230;52.402;6.276;2022-12-20T00:55:00;101330.0;;;9.2;92.2
67345;BME280;54230;52.402;6.276;2022-12-20T01:00:00;101330.0;;;9.3;92.0
67345;BME280;54230;52.402;6.276;2022-12-20T01:05:00;101330.0;;;9.3;91.9
67345;BME280;54230;52.402;6.276;2022-12-20T01:10:00;101320.0;;;9.3;91.7
67345;BME280;54230;52.402;6.276;2022-12-20T01:15:00;101330.0;;;9.3;91.4
67345;BME280;54230;52.402;6.276;2022-12-20T01:20:00;101330.0;;;9.4;91.1
67345;BME280;54230;52.402;6.276;2022-12-20T01:25:00;101330.0;;;9.5;90.7
67345;BME280;54230;52.402;6.276;2022-12-20T01:30:00;101310.0;;;9.5;90.1
67345;BME280;54230;52.402;6.276;2022-12-20T01:35:00;101300.0;;;9.5;90.0
67345;BME280;54230;52.402;6.276;2022-12-20T01:40:00;101320.0;;;9.6;89.4
67345;BME280;54230;52.402;6.276;2022-12-20T01:45:00;101300.0;;;9.6;89.4
67345;BME280;54230;52.402;6.276;2022-12-20T01:50:01;101310.0;;;9.6;89.2
67345;BME280;54230;52.402;6.276;2022-12-20T01:55:04;101310.0;;;9.6;89.1
67345;BME280;54230;52.402;6.276;2022-12-20T02:00:00;101310.0;;;9.7;88.9
67345;BME280;54230;52.402;6.276;2022-12-20T02:05:00;101320.0;;;9.7;89.1
67345;BME280;54230;52.402;6.276;2022-12-20T02:10:01;101320.0;;;9.7;90.0
67345;BME280;54230;52.402;6.276;2022-12-20T02:15:09;101320.0;;;9.7;91.1
67345;BME280;54230;52.402;6.276;2022-12-20T02:20:14;101310.0;;;9.6;92.1
67345;BME280;54230;52.402;6.276;2022-12-20T02:25:17;101300.0;;;9.6;92.8
67345;BME280;54230;52.402;6.276;2022-12-20T02:30:02;101290.0;;;9.5;94.0
67345;BME280;54230;52.402;6.276;2022-12-20T02:35:00;101290.0;;;9.6;94.6
67345;BME280;54230;52.402;6.276;2022-12-20T02:40:01;101300.0;;;9.5;95.7
67345;BME280;54230;52.402;6.276;2022-12-20T02:45:02;101300.0;;;9.4;96.9
67345;BME280;54230;52.402;6.276;2022-12-20T02:50:02;101290.0;;;9.4;98.1
67345;BME280;54230;52.402;6.276;2022-12-20T02:55:02;101290.0;;;9.4;99.2
67345;BME280;54230;52.402;6.276;2022-12-20T03:00:03;101260.0;;;9.3;100.0
67345;BME280;54230;52.402;6.276;2022-12-20T03:05:00;101250.0;;;9.2;100.0
67345;BME280;54230;52.402;6.276;2022-12-20T03:10:00;101250.0;;;9.2;100.0
67345;BME280;54230;52.402;6.276;2022-12-20T03:15:00;101260.0;;;9.2;100.0
67345;BME280;54230;52.402;6.276;2022-12-20T03:20:00;101260.0;;;9.1;100.0
67345;BME280;54230;52.402;6.276;2022-12-20T03:25:00;101270.0;;;9.1;100.0
67345;BME280;54230;52.402;6.276;2022-12-20T03:30:00;101270.0;;;9.1;100.0
67345;BME280;54230;52.402;6.276;2022-12-20T03:35:00;101260.0;;;9.0;100.0
67345;BME280;54230;52.402;6.276;2022-12-20T03:40:00;101260.0;;;9.0;100.0
67345;BME280;54230;52.402;6.276;2022-12-20T03:45:00;101270.0;;;9.0;100.0
67345;BME280;54230;52.402;6.276;2022-12-20T03:50:00;101260.0;;;9.1;100.0
67345;BME280;54230;52.402;6.276;2022-12-20T03:55:00;101270.0;;;9.1;100.0
67345;BME280;54230;52.402;6.276;2022-12-20T04:00:00;101270.0;;;9.1;100.0
67345;BME280;54230;52.402;6.276;2022-12-20T04:05:00;101270.0;;;9.2;100.0
67345;BME280;54230;52.402;6.276;2022-12-20T04:10:00;101240.0;;;9.2;100.0
67345;BME280;54230;52.402;6.276;2022-12-20T04:15:00;101230.0;;;9.2;100.0
67345;BME280;54230;52.402;6.276;2022-12-20T04:20:00;101230.0;;;9.2;100.0
67345;BME280;54230;52.402;6.276;2022-12-20T04:25:00;101230.0;;;9.2;100.0
67345;BME280;54230;52.402;6.276;2022-12-20T04:30:00;101220.0;;;9.3;100.0
67345;BME280;54230;52.402;6.276;2022-12-20T04:35:00;101220.0;;;9.4;100.0
67345;BME280;54230;52.402;6.276;2022-12-20T04:40:00;101200.0;;;9.4;100.0
67345;BME280;54230;52.402;6.276;2022-12-20T04:45:00;101220.0;;;9.6;100.0
67345;BME280;54230;52.402;6.276;2022-12-20T04:50:00;101220.0;;;9.7;100.0
67345;BME280;54230;52.402;6.276;2022-12-20T04:55:00;101210.0;;;9.8;100.0
67345;BME280;54230;52.402;6.276;2022-12-20T05:00:00;101210.0;;;9.8;99.9
67345;BME280;54230;52.402;6.276;2022-12-20T05:05:00;101200.0;;;9.9;99.3
67345;BME280;54230;52.402;6.276;2022-12-20T05:10:00;101190.0;;;9.9;98.7
67345;BME280;54230;52.402;6.276;2022-12-20T05:15:00;101190.0;;;10.0;98.4
67345;BME280;54230;52.402;6.276;2022-12-20T05:20:00;101180.0;;;10.0;97.9
67345;BME280;54230;52.402;6.276;2022-12-20T05:25:00;101170.0;;;9.9;97.9
67345;BME280;54230;52.402;6.276;2022-12-20T05:30:00;101180.0;;;10.0;98.0
67345;BME280;54230;52.402;6.276;2022-12-20T05:35:00;101180.0;;;10.1;97.7
67345;BME280;54230;52.402;6.276;2022-12-20T05:40:00;101180.0;;;10.2;97.1
67345;BME280;54230;52.402;6.276;2022-12-20T05:45:00;101170.0;;;10.2;96.8
67345;BME280;54230;52.402;6.276;2022-12-20T05:50:00;101170.0;;;10.2;97.1
67345;BME280;54230;52.402;6.276;2022-12-20T05:55:00;101170.0;;;10.1;99.0
67345;BME280;54230;52.402;6.276;2022-12-20T06:00:01;101170.0;;;10.0;100.0
67345;BME280;54230;52.402;6.276;2022-12-20T06:05:00;101160.0;;;9.9;100.0
67345;BME280;54230;52.402;6.276;2022-12-20T06:10:00;101170.0;;;9.9;100.0
67345;BME280;54230;52.402;6.276;2022-12-20T06:15:00;101160.0;;;9.9;100.0
67345;BME280;54230;52.402;6.276;2022-12-20T06:20:00;101170.0;;;9.8;100.0
67345;BME280;54230;52.402;6.276;2022-12-20T06:25:00;101170.0;;;9.8;100.0
67345;BME280;54230;52.402;6.276;2022-12-20T06:30:00;101160.0;;;9.7;100.0
67345;BME280;54230;52.402;6.276;2022-12-20T06:35:00;101160.0;;;9.7;100.0
67345;BME280;54230;52.402;6.276;2022-12-20T06:40:00;101150.0;;;9.6;100.0
67345;BME280;54230;52.402;6.276;2022-12-20T06:45:00;101160.0;;;9.6;100.0
67345;BME280;54230;52.402;6.276;2022-12-20T06:50:00;101150.0;;;9.6;100.0
67345;BME280;54230;52.402;6.276;2022-12-20T06:55:00;101160.0;;;9.6;100.0
67345;BME280;54230;52.402;6.276;2022-12-20T07:00:00;101150.0;;;9.6;100.0
67345;BME280;54230;52.402;6.276;2022-12-20T07:05:00;101140.0;;;9.6;100.0
67345;BME280;54230;52.402;6.276;2022-12-20T07:10:00;101140.0;;;9.7;100.0
67345;BME280;54230;52.402;6.276;2022-12-20T07:15:00;101130.0;;;9.7;100.0
67345;BME280;54230;52.402;6.276;2022-12-20T07:20:00;101130.0;;;9.7;100.0
67345;BME280;54230;52.402;6.276;2022-12-20T07:25:00;101120.0;;;9.8;100.0
67345;BME280;54230;52.402;6.276;2022-12-20T07:30:00;101120.0;;;9.8;100.0
67345;BME280;54230;52.402;6.276;2022-12-20T07:35:00;101120.0;;;9.8;100.0
67345;BME280;54230;52.402;6.276;2022-12-20T07:40:00;101120.0;;;9.9;100.0
67345;BME280;54230;52.402;6.276;2022-12-20T07:45:00;101130.0;;;9.9;100.0
67345;BME280;54230;52.402;6.276;2022-12-20T07:50:00;101120.0;;;9.9;100.0
67345;BME280;54230;52.402;6.276;2022-12-20T07:55:04;101110.0;;;9.9;100.0
67345;BME280;54230;52.402;6.276;2022-12-20T08:00:01;101100.0;;;10.0;100.0
67345;BME280;54230;52.402;6.276;2022-12-20T08:05:01;101120.0;;;10.1;100.0
67345;BME280;54230;52.402;6.276;2022-12-20T08:10:00;101120.0;;;10.2;99.4
67345;BME280;54230;52.402;6.276;2022-12-20T08:15:01;101110.0;;;10.3;98.4
67345;BME280;54230;52.402;6.276;2022-12-20T08:20:00;101120.0;;;10.4;97.3
67345;BME280;54230;52.402;6.276;2022-12-20T08:25:00;101130.0;;;10.5;95.6
67345;BME280;54230;52.402;6.276;2022-12-20T08:30:00;101130.0;;;10.5;95.2
67345;BME280;54230;52.402;6.276;2022-12-20T08:35:00;101140.0;;;10.5;95.6
67345;BME280;54230;52.402;6.276;2022-12-20T08:40:00;101130.0;;;10.4;95.3
67345;BME280;54230;52.402;6.276;2022-12-20T08:45:00;101130.0;;;10.4;95.5
67345;BME280;54230;52.402;6.276;2022-12-20T08:50:00;101120.0;;;10.4;94.2
67345;BME280;54230;52.402;6.276;2022-12-20T08:55:00;101100.0;;;10.5;93.6
67345;BME280;54230;52.402;6.276;2022-12-20T09:00:00;101080.0;;;10.4;92.5
67345;BME280;54230;52.402;6.276;2022-12-20T09:05:00;101110.0;;;10.6;92.3
67345;BME280;54230;52.402;6.276;2022-12-20T09:10:00;101100.0;;;10.5;92.6
67345;BME280;54230;52.402;6.276;2022-12-20T09:15:00;101120.0;;;10.5;93.2
67345;BME280;54230;52.402;6.276;2022-12-20T09:20:00;101110.0;;;10.3;94.1
67345;BME280;54230;52.402;6.276;2022-12-20T09:25:00;101110.0;;;10.3;95.0
67345;BME280;54230;52.402;6.276;2022-12-20T09:30:00;101110.0;;;10.2;96.1
67345;BME280;54230;52.402;6.276;2022-12-20T09:35:00;101090.0;;;10.0;97.5
67345;BME280;54230;52.402;6.276;2022-12-20T09:40:00;101120.0;;;10.0;99.3
67345;BME280;54230;52.402;6.276;2022-12-20T09:45:03;101120.0;;;9.9;100.0
67345;BME280;54230;52.402;6.276;2022-12-20T09:50:01;101130.0;;;9.9;100.0
67345;BME280;54230;52.402;6.276;2022-12-20T09:55:09;101120.0;;;9.8;100.0
67345;BME280;54230;52.402;6.276;2022-12-20T10:00:00;101120.0;;;9.8;100.0
67345;BME280;54230;52.402;6.276;2022-12-20T10:05:00;101130.0;;;9.8;100.0
67345;BME280;54230;52.402;6.276;2022-12-20T10:10:19;101110.0;;;9.7;100.0
67345;BME280;54230;52.402;6.276;2022-12-20T10:15:11;101120.0;;;9.7;100.0
67345;BME280;54230;52.402;6.276;2022-12-20T10:20:13;101110.0;;;9.8;100.0
67345;BME280;54230;52.402;6.276;2022-12-20T10:25:05;101110.0;;;9.9;100.0
67345;BME280;54230;52.402;6.276;2022-12-20T10:30:00;101110.0;;;9.9;100.0
67345;BME280;54230;52.402;6.276;2022-12-20T10:35:16;101100.0;;;9.8;100.0
67345;BME280;54230;52.402;6.276;2022-12-20T10:40:00;101070.0;;;9.6;100.0
67345;BME280;54230;52.402;6.276;2022-12-20T10:45:00;101110.0;;;9.8;100.0
67345;BME280;54230;52.402;6.276;2022-12-20T10:50:12;101110.0;;;9.7;100.0
67345;BME280;54230;52.402;6.276;2022-12-20T10:55:00;101110.0;;;9.7;100.0
67345;BME280;54230;52.402;6.276;2022-12-20T11:00:04;101080.0;;;9.5;100.0
67345;BME280;54230;52.402;6.276;2022-12-20T11:05:02;101070.0;;;9.6;100.0
67345;BME280;54230;52.402;6.276;2022-12-20T11:10:03;101080.0;;;9.7;100.0
67345;BME280;54230;52.402;6.276;2022-12-20T11:15:09;101080.0;;;9.9;100.0
67345;BME280;54230;52.402;6.276;2022-12-20T11:20:11;101070.0;;;9.9;100.0
67345;BME280;54230;52.402;6.276;2022-12-20T11:25:09;101070.0;;;9.9;100.0
67345;BME280;54230;52.402;6.276;2022-12-20T11:30:04;101050.0;;;9.9;100.0
67345;BME280;54230;52.402;6.276;2022-12-20T11:35:08;101050.0;;;9.9;100.0
67345;BME280;54230;52.402;6.276;2022-12-20T11:40:05;101040.0;;;9.9;100.0
67345;BME280;54230;52.402;6.276;2022-12-20T11:45:04;101040.0;;;9.9;100.0
67345;BME280;54230;52.402;6.276;2022-12-20T11:50:17;101050.0;;;9.9;100.0
67345;BME280;54230;52.402;6.276;2022-12-20T11:55:05;101030.0;;;9.9;100.0
67345;BME280;54230;52.402;6.276;2022-12-20T12:00:01;101040.0;;;9.9;100.0
67345;BME280;54230;52.402;6.276;2022-12-20T12:05:04;101040.0;;;10.0;100.0
67345;BME280;54230;52.402;6.276;2022-12-20T12:10:03;101040.0;;;10.0;100.0
67345;BME280;54230;52.402;6.276;2022-12-20T12:15:04;101040.0;;;10.0;100.0
67345;BME280;54230;52.402;6.276;2022-12-20T12:20:16;101030.0;;;10.1;100.0
67345;BME280;54230;52.402;6.276;2022-12-20T12:25:03;101030.0;;;10.0;100.0
67345;BME280;54230;52.402;6.276;2022-12-20T12:30:00;101040.0;;;10.1;100.0
67345;BME280;54230;52.402;6.276;2022-12-20T12:35:10;101030.0;;;10.1;100.0
67345;BME280;54230;52.402;6.276;2022-12-20T12:45:02;101030.0;;;10.0;100.0
67345;BME280;54230;52.402;6.276;2022-12-20T12:50:01;101040.0;;;10.1;100.0
67345;BME280;54230;52.402;6.276;2022-12-20T12:55:00;101040.0;;;10.1;100.0
67345;BME280;54230;52.402;6.276;2022-12-20T13:00:00;101030.0;;;10.1;100.0
67345;BME280;54230;52.402;6.276;2022-12-20T13:10:59;101020.0;;;10.1;100.0
67345;BME280;54230;52.402;6.276;2022-12-20T13:15:01;101020.0;;;10.1;100.0
67345;BME280;54230;52.402;6.276;2022-12-20T13:20:00;101020.0;;;10.1;100.0
67345;BME280;54230;52.402;6.276;2022-12-20T13:25:01;101020.0;;;10.0;100.0
67345;BME280;54230;52.402;6.276;2022-12-20T13:35:00;101020.0;;;10.0;100.0
67345;BME280;54230;52.402;6.276;2022-12-20T13:40:14;101020.0;;;10.0;100.0
67345;BME280;54230;52.402;6.276;2022-12-20T13:45:02;101020.0;;;9.9;100.0
67345;BME280;54230;52.402;6.276;2022-12-20T13:50:21;101010.0;;;10.0;100.0
67345;BME280;54230;52.402;6.276;2022-12-20T13:55:06;101010.0;;;10.0;100.0
67345;BME280;54230;52.402;6.276;2022-12-20T14:00:04;101020.0;;;10.1;100.0
67345;BME280;54230;52.402;6.276;2022-12-20T14:05:02;101020.0;;;10.1;100.0
67345;BME280;54230;52.402;6.276;2022-12-20T14:10:02;101020.0;;;10.1;100.0
67345;BME280;54230;52.402;6.276;2022-12-20T14:15:00;101020.0;;;10.1;100.0
67345;BME280;54230;52.402;6.276;2022-12-20T14:20:02;101020.0;;;10.1;100.0
67345;BME280;54230;52.402;6.276;2022-12-20T14:25:01;101020.0;;;10.1;100.0
67345;BME280;54230;52.402;6.276;2022-12-20T14:30:00;101000.0;;;10.0;100.0
67345;BME280;54230;52.402;6.276;2022-12-20T14:35:00;101020.0;;;10.1;100.0
67345;BME280;54230;52.402;6.276;2022-12-20T14:40:03;101020.0;;;10.1;100.0
67345;BME280;54230;52.402;6.276;2022-12-20T14:45:04;101000.0;;;10.0;100.0
67345;BME280;54230;52.402;6.276;2022-12-20T14:50:02;101010.0;;;10.2;100.0
67345;BME280;54230;52.402;6.276;2022-12-20T14:55:04;101010.0;;;10.3;100.0
67345;BME280;54230;52.402;6.276;2022-12-20T15:00:04;101020.0;;;10.3;100.0
67345;BME280;54230;52.402;6.276;2022-12-20T15:05:06;101010.0;;;10.3;100.0
67345;BME280;54230;52.402;6.276;2022-12-20T15:10:00;101010.0;;;10.3;100.0
67345;BME280;54230;52.402;6.276;2022-12-20T15:15:00;101010.0;;;10.2;100.0
67345;BME280;54230;52.402;6.276;2022-12-20T15:20:00;101000.0;;;10.2;100.0
67345;BME280;54230;52.402;6.276;2022-12-20T15:25:00;100990.0;;;10.2;100.0
67345;BME280;54230;52.402;6.276;2022-12-20T15:30:00;100990.0;;;10.2;100.0
67345;BME280;54230;52.402;6.276;2022-12-20T15:35:01;100990.0;;;10.2;100.0
67345;BME280;54230;52.402;6.276;2022-12-20T15:40:00;100990.0;;;10.2;100.0
67345;BME280;54230;52.402;6.276;2022-12-20T15:45:00;101000.0;;;10.2;100.0
67345;BME280;54230;52.402;6.276;2022-12-20T15:50:00;100990.0;;;10.2;100.0
67345;BME280;54230;52.402;6.276;2022-12-20T15:55:00;100990.0;;;10.2;100.0
67345;BME280;54230;52.402;6.276;2022-12-20T16:00:00;100980.0;;;10.1;100.0
67345;BME280;54230;52.402;6.276;2022-12-20T16:05:00;100990.0;;;10.2;100.0
67345;BME280;54230;52.402;6.276;2022-12-20T16:10:00;101000.0;;;10.2;100.0
67345;BME280;54230;52.402;6.276;2022-12-20T16:15:00;101000.0;;;10.2;100.0
67345;BME280;54230;52.402;6.276;2022-12-20T16:20:00;100990.0;;;10.2;100.0
67345;BME280;54230;52.402;6.276;2022-12-20T16:25:00;100990.0;;;10.1;100.0
67345;BME280;54230;52.402;6.276;2022-12-20T16:30:00;100990.0;;;10.1;100.0
67345;BME280;54230;52.402;6.276;2022-12-20T16:35:00;101000.0;;;10.1;100.0
67345;BME280;54230;52.402;6.276;2022-12-20T16:40:00;101000.0;;;10.1;100.0
67345;BME280;54230;52.402;6.276;2022-12-20T16:45:00;101000.0;;;10.1;100.0
67345;BME280;54230;52.402;6.276;2022-12-20T16:50:00;101010.0;;;10.1;100.0
67345;BME280;54230;52.402;6.276;2022-12-20T16:55:00;101020.0;;;10.1;100.0
67345;BME280;54230;52.402;6.276;2022-12-20T17:00:01;101020.0;;;10.1;100.0
67345;BME280;54230;52.402;6.276;2022-12-20T17:05:00;101020.0;;;10.1;100.0
67345;BME280;54230;52.402;6.276;2022-12-20T17:10:00;101030.0;;;10.1;100.0
67345;BME280;54230;52.402;6.276;2022-12-20T17:15:00;101030.0;;;10.0;100.0
67345;BME280;54230;52.402;6.276;2022-12-20T17:20:00;101030.0;;;10.0;100.0
67345;BME280;54230;52.402;6.276;2022-12-20T17:25:00;101030.0;;;10.0;100.0
67345;BME280;54230;52.402;6.276;2022-12-20T17:30:00;101020.0;;;9.9;100.0
67345;BME280;54230;52.402;6.276;2022-12-20T17:35:00;101020.0;;;9.9;100.0
67345;BME280;54230;52.402;6.276;2022-12-20T17:40:00;101020.0;;;9.9;100.0
67345;BME280;54230;52.402;6.276;2022-12-20T17:45:00;101020.0;;;9.9;100.0
67345;BME280;54230;52.402;6.276;2022-12-20T17:50:00;101020.0;;;9.9;100.0
67345;BME280;54230;52.402;6.276;2022-12-20T17:55:00;101020.0;;;9.9;100.0
67345;BME280;54230;52.402;6.276;2022-12-20T18:00:00;101010.0;;;9.9;100.0
67345;BME280;54230;52.402;6.276;2022-12-20T18:05:00;101010.0;;;9.9;100.0
67345;BME280;54230;52.402;6.276;2022-12-20T18:10:00;101010.0;;;9.8;100.0
67345;BME280;54230;52.402;6.276;2022-12-20T18:15:00;101020.0;;;9.8;100.0
67345;BME280;54230;52.402;6.276;2022-12-20T18:20:00;101020.0;;;9.8;100.0
67345;BME280;54230;52.402;6.276;2022-12-20T18:25:00;101010.0;;;9.8;100.0
67345;BME280;54230;52.402;6.276;2022-12-20T18:30:00;101010.0;;;9.8;100.0
67345;BME280;54230;52.402;6.276;2022-12-20T18:35:00;101010.0;;;9.8;100.0
67345;BME280;54230;52.402;6.276;2022-12-20T18:40:00;101000.0;;;9.8;100.0
67345;BME280;54230;52.402;6.276;2022-12-20T18:45:00;101000.0;;;9.8;100.0
67345;BME280;54230;52.402;6.276;2022-12-20T18:50:00;101000.0;;;9.8;100.0
67345;BME280;54230;52.402;6.276;2022-12-20T18:55:00;101000.0;;;9.8;100.0
67345;BME280;54230;52.402;6.276;2022-12-20T19:00:00;101000.0;;;9.7;100.0
67345;BME280;54230;52.402;6.276;2022-12-20T19:05:00;101010.0;;;9.7;100.0
67345;BME280;54230;52.402;6.276;2022-12-20T19:10:00;101010.0;;;9.7;100.0
67345;BME280;54230;52.402;6.276;2022-12-20T19:15:00;100990.0;;;9.6;100.0
67345;BME280;54230;52.402;6.276;2022-12-20T19:20:00;101010.0;;;9.7;100.0
67345;BME280;54230;52.402;6.276;2022-12-20T19:25:00;101010.0;;;9.7;100.0
67345;BME280;54230;52.402;6.276;2022-12-20T19:30:00;101020.0;;;9.7;100.0
67345;BME280;54230;52.402;6.276;2022-12-20T19:35:00;101020.0;;;9.7;100.0
67345;BME280;54230;52.402;6.276;2022-12-20T19:40:00;101030.0;;;9.7;100.0
67345;BME280;54230;52.402;6.276;2022-12-20T19:45:00;101010.0;;;9.6;100.0
67345;BME280;54230;52.402;6.276;2022-12-20T19:50:00;101000.0;;;9.5;100.0
67345;BME280;54230;52.402;6.276;2022-12-20T19:55:00;101030.0;;;9.7;100.0
67345;BME280;54230;52.402;6.276;2022-12-20T20:00:00;101030.0;;;9.7;100.0
67345;BME280;54230;52.402;6.276;2022-12-20T20:05:00;101030.0;;;9.7;100.0
67345;BME280;54230;52.402;6.276;2022-12-20T20:10:00;101030.0;;;9.7;100.0
67345;BME280;54230;52.402;6.276;2022-12-20T20:15:00;101030.0;;;9.7;100.0
67345;BME280;54230;52.402;6.276;2022-12-20T20:20:00;101030.0;;;9.7;100.0
67345;BME280;54230;52.402;6.276;2022-12-20T20:25:00;101030.0;;;9.7;100.0
67345;BME280;54230;52.402;6.276;2022-12-20T20:30:00;101030.0;;;9.7;100.0
67345;BME280;54230;52.402;6.276;2022-12-20T20:35:00;101030.0;;;9.7;100.0
67345;BME280;54230;52.402;6.276;2022-12-20T20:40:00;101040.0;;;9.6;100.0
67345;BME280;54230;52.402;6.276;2022-12-20T20:45:00;101040.0;;;9.6;100.0
67345;BME280;54230;52.402;6.276;2022-12-20T20:50:00;101040.0;;;9.6;100.0
67345;BME280;54230;52.402;6.276;2022-12-20T20:55:00;101040.0;;;9.6;100.0
67345;BME280;54230;52.402;6.276;2022-12-20T21:00:00;101040.0;;;9.6;100.0
67345;BME280;54230;52.402;6.276;2022-12-20T21:05:00;101040.0;;;9.6;100.0
67345;BME280;54230;52.402;6.276;2022-12-20T21:10:00;101030.0;;;9.6;100.0
67345;BME280;54230;52.402;6.276;2022-12-20T21:15:00;101040.0;;;9.6;100.0
67345;BME280;54230;52.402;6.276;2022-12-20T21:20:00;101040.0;;;9.6;100.0
67345;BME280;54230;52.402;6.276;2022-12-20T21:25:00;101030.0;;;9.6;100.0
67345;BME280;54230;52.402;6.276;2022-12-20T21:30:00;101040.0;;;9.6;100.0
67345;BME280;54230;52.402;6.276;2022-12-20T21:35:00;101040.0;;;9.6;100.0
67345;BME280;54230;52.402;6.276;2022-12-20T21:40:00;101040.0;;;9.6;100.0
67345;BME280;54230;52.402;6.276;2022-12-20T21:45:00;101040.0;;;9.6;100.0
67345;BME280;54230;52.402;6.276;2022-12-20T21:50:00;101050.0;;;9.5;100.0
67345;BME280;54230;52.402;6.276;2022-12-20T21:55:00;101050.0;;;9.5;100.0
67345;BME280;54230;52.402;6.276;2022-12-20T22:00:00;101050.0;;;9.5;100.0
67345;BME280;54230;52.402;6.276;2022-12-20T22:05:00;101050.0;;;9.5;100.0
67345;BME280;54230;52.402;6.276;2022-12-20T22:10:00;101060.0;;;9.4;100.0
67345;BME280;54230;52.402;6.276;2022-12-20T22:15:00;101030.0;;;9.3;100.0
67345;BME280;54230;52.402;6.276;2022-12-20T22:20:00;101050.0;;;9.4;100.0
67345;BME280;54230;52.402;6.276;2022-12-20T22:25:00;101050.0;;;9.4;100.0
67345;BME280;54230;52.402;6.276;2022-12-20T22:30:00;101040.0;;;9.4;100.0
67345;BME280;54230;52.402;6.276;2022-12-20T22:35:00;101050.0;;;9.4;100.0
67345;BME280;54230;52.402;6.276;2022-12-20T22:40:00;101060.0;;;9.3;100.0
67345;BME280;54230;52.402;6.276;2022-12-20T22:45:00;101060.0;;;9.3;100.0
67345;BME280;54230;52.402;6.276;2022-12-20T22:50:00;101050.0;;;9.2;100.0
67345;BME280;54230;52.402;6.276;2022-12-20T22:55:00;101060.0;;;9.3;100.0
67345;BME280;54230;52.402;6.276;2022-12-20T23:00:00;101060.0;;;9.3;100.0
67345;BME280;54230;52.402;6.276;2022-12-20T23:05:00;101050.0;;;9.3;100.0
67345;BME280;54230;52.402;6.276;2022-12-20T23:10:00;101060.0;;;9.3;100.0
67345;BME280;54230;52.402;6.276;2022-12-20T23:15:00;101070.0;;;9.3;100.0
67345;BME280;54230;52.402;6.276;2022-12-20T23:20:00;101070.0;;;9.2;100.0
67345;BME280;54230;52.402;6.276;2022-12-20T23:25:00;101070.0;;;9.2;100.0
67345;BME280;54230;52.402;6.276;2022-12-20T23:30:00;101070.0;;;9.1;100.0
67345;BME280;54230;52.402;6.276;2022-12-20T23:35:00;101070.0;;;9.1;100.0
67345;BME280;54230;52.402;6.276;2022-12-20T23:40:00;101070.0;;;9.1;100.0
67345;BME280;54230;52.402;6.276;2022-12-20T23:45:00;101070.0;;;9.1;100.0
67345;BME280;54230;52.402;6.276;2022-12-20T23:50:00;101080.0;;;9.1;100.0
67345;BME280;54230;52.402;6.276;2022-12-20T23:55:00;101090.0;;;9.1;100.0
